Nearby METAR Reports

 

KMRB - Martinsburg, West Virginia, USA
Distance from station: NNW 9mi, 14km
Updated: 01/19/2022 4:53am
Clear
Clear
 Wind from S
Wind: S 5 mph , 7 km/h
Temperature: 28°F , -2°C
Wind Chill: 22°F , -6°C
Dew Point: 18°F , -8°C
Humidity: 64%
Barometer: 30.05 inHg , 1017.6 hPa
Clouds: Clear
Visibility: 10 miles , 16 km
2022/01/19 09:53 KMRB 190953Z AUTO 17004KT 10SM CLR M02/M08 A3005 RMK AO2 SLP180 T10171078 $
KOKV - Winchester Rgnl, Virginia, USA
Distance from station: SW 17mi, 28km
Updated: 01/19/2022 5:15am
Clear
Clear
 Wind from SW
Wind: SW 6 mph , 9 km/h
Temperature: 32°F , 0°C
Wind Chill: 26°F , -3°C
Dew Point: 19°F , -7°C
Humidity: 60%
Barometer: 30.04 inHg , 1017.3 hPa
Clouds: Clear
Visibility: 10 miles , 16 km
2022/01/19 10:15 KOKV 191015Z AUTO 22005KT 10SM CLR 00/M07 A3004 RMK AO2
 
KJYO - Leesburg/Godfrey, Virginia, USA
Distance from station: SE 23mi, 38km
Updated: 01/19/2022 5:15am
Clear
Clear
 Wind from SSW
Wind: SSW 6 mph , 9 km/h
Temperature: 30°F , -1°C
Wind Chill: 24°F , -4°C
Dew Point: 25°F , -4°C
Humidity: 80%
Barometer: 30.12 inHg , 1020 hPa
Clouds: Clear
Visibility: 10 miles , 16 km
2022/01/19 10:15 KJYO 191015Z AUTO 20005KT 10SM CLR M01/M04 A3012 RMK AO2
KFDK - Frederick, Maryland, USA
Distance from station: ENE 30mi, 48km
Updated: 01/19/2022 5:15am
Partly cloudy
Partly cloudy
 Wind from calm
Wind: Calm
Temperature: 28°F , -2°C
Dew Point: 23°F , -5°C
Humidity: 80%
Barometer: 30.11 inHg , 1019.6 hPa
Clouds: Partly cloudy
Visibility: 10 miles , 16 km
Cloud details: Partly cloudy 12000 ft
2022/01/19 10:15 KFDK 191015Z AUTO 00000KT 10SM SCT120 M02/M05 A3011 RMK AO2
 
KHGR - Hagerstown, Maryland, USA
Distance from station: NNE 30mi, 48km
Updated: 01/19/2022 4:53am
Overcast
Overcast
 Wind from SSE
Wind: SSE 9 mph , 15 km/h
Temperature: 30°F , -1°C
Wind Chill: 22°F , -6°C
Dew Point: 19°F , -7°C
Humidity: 64%
Barometer: 30.05 inHg , 1017.6 hPa
Clouds: Overcast
Visibility: 10 miles , 16 km
Cloud details: Overcast 12000 ft
2022/01/19 09:53 KHGR 190953Z AUTO 16008KT 10SM OVC120 M01/M07 A3005 RMK AO2 SLP192 T10111072
KIAD - Wash Dc/Dulles, Virginia, USA
Distance from station: SE 34mi, 55km
Updated: 01/19/2022 4:52am
Overcast
Overcast
 Wind from S
Wind: S 10 mph , 17 km/h
Temperature: 32°F , 0°C
Wind Chill: 24°F , -4°C
Dew Point: 21°F , -6°C
Humidity: 64%
Barometer: 30.11 inHg , 1019.6 hPa
Clouds: Overcast
Visibility: 10 miles , 16 km
Cloud details: Overcast 14000 ft
2022/01/19 09:52 KIAD 190952Z 18009KT 10SM OVC140 00/M06 A3011 RMK AO2 SLP196 T00001061
 
KRSP - Nsf Thurmont, Maryland, USA
Distance from station: NE 34mi, 55km
Updated: 01/19/2022 4:54am
Overcast
Overcast
 Wind from S
Wind: S 13 mph , 20 km/h, Gust: 22 mph , 35 km/h
Temperature: 28°F , -2°C
Wind Chill: 17°F , -8°C
Dew Point: 16°F , -9°C
Humidity: 59%
Barometer: 30.00 inHg , 1015.9 hPa
Clouds: Overcast
Visibility: 10 miles , 16 km
Cloud details: Overcast 11000 ft
2022/01/19 09:54 KRSP 190954Z AUTO 17011G19KT 130V190 10SM OVC110 M02/M09 A3000 RMK AO2 PRESFR SLP185 T10171094 $
KGAI - Gaithersburg, Maryland, USA
Distance from station: E 40mi, 64km
Updated: 01/19/2022 4:56am
Few Clouds
Few Clouds
 Wind from SSE
Wind: SSE 7 mph , 11 km/h
Temperature: 30°F , -1°C
Wind Chill: 23°F , -5°C
Dew Point: 21°F , -6°C
Humidity: 69%
Barometer: 30.11 inHg , 1019.6 hPa
Clouds: Few Clouds
Visibility: 10 miles , 16 km
Cloud details: Few Clouds 12000 ft
2022/01/19 09:56 KGAI 190956Z AUTO 16006KT 10SM FEW120 M01/M06 A3011 RMK AO2 SLP218 T10111056 FZRANO
 
KRYT - Fountain Dale, Pennsylvania, USA
Distance from station: NE 40mi, 64km
Updated: 11/13/2017 7:53am
NOT Current
Mist, Overcast
Mist, Overcast
 Wind from calm
Wind: Calm
Temperature: 37°F , 3°C
Dew Point: 34°F , 1°C
Humidity: 87%
Barometer: 30.31 inHg , 1026.4 hPa
Summary: Mist
Clouds: Overcast
Visibility: 5 miles , 8 km
Cloud details: Overcast 700 ft
2017/11/13 12:53 KRYT 131253Z AUTO 00000KT 5SM BR OVC007 03/01 A3031 RMK AO2 SLP275 T00280011 TSNO $
KHEF - Manassas Muni, Virginia, USA
Distance from station: SSE 44mi, 72km
Updated: 01/19/2022 4:56am
Clear
Clear
 Wind from S
Wind: S 7 mph , 11 km/h
Temperature: 28°F , -2°C
Wind Chill: 21°F , -6°C
Dew Point: 23°F , -5°C
Humidity: 80%
Barometer: 30.14 inHg , 1020.7 hPa
Clouds: Clear
Visibility: 10 miles , 16 km
2022/01/19 09:56 KHEF 190956Z AUTO 18006KT 10SM CLR M02/M05 A3014 RMK AO2 SLP212 T10171050 FZRANO
 
KHWY - Warrenton, Virginia, USA
Distance from station: SSE 50mi, 80km
Updated: 01/19/2022 5:15am
Clear
Clear
 Wind from S
Wind: S 5 mph , 7 km/h
Temperature: 32°F , 0°C
Wind Chill: 27°F , -3°C
Dew Point: 19°F , -7°C
Humidity: 60%
Barometer: 30.13 inHg , 1020.3 hPa
Clouds: Clear
Visibility: 10 miles , 16 km
2022/01/19 10:15 KHWY 191015Z AUTO 18004KT 10SM CLR 00/M07 A3013 RMK AO2 T10041070